createdAt,value
2023-01-03T00:00:19.284Z,7.80
2023-01-03T00:02:46.588Z,7.70
2023-01-03T00:05:13.291Z,7.80
2023-01-03T00:07:39.909Z,7.70
2023-01-03T00:10:10.981Z,7.70
2023-01-03T00:12:37.874Z,7.80
2023-01-03T00:15:05.241Z,7.80
2023-01-03T00:17:31.943Z,7.80
2023-01-03T00:19:58.689Z,7.80
2023-01-03T00:22:25.665Z,7.80
2023-01-03T00:24:53.301Z,7.90
2023-01-03T00:27:19.982Z,7.90
2023-01-03T00:29:46.854Z,8.00
2023-01-03T00:32:13.992Z,8.10
2023-01-03T00:34:44.012Z,8.10
2023-01-03T00:37:11.039Z,8.10
2023-01-03T00:39:37.676Z,7.90
2023-01-03T00:42:05.224Z,8.00
2023-01-03T00:44:32.252Z,8.00
2023-01-03T00:46:59.271Z,8.00
2023-01-03T00:49:26.138Z,8.00
2023-01-03T00:51:55.767Z,8.00
2023-01-03T00:54:23.117Z,8.00
2023-01-03T00:56:51.111Z,7.90
2023-01-03T00:59:19.569Z,7.80
2023-01-03T01:01:52.224Z,7.80
2023-01-03T01:04:30.700Z,7.80
2023-01-03T01:07:00.310Z,7.80
2023-01-03T01:09:31.228Z,7.80
2023-01-03T01:11:57.883Z,7.80
2023-01-03T01:14:27.375Z,7.90
2023-01-03T01:17:00.419Z,7.90
2023-01-03T01:19:29.920Z,7.80
2023-01-03T01:21:56.987Z,7.80
2023-01-03T01:24:23.974Z,7.70
2023-01-03T01:26:51.203Z,7.60
2023-01-03T01:29:18.855Z,7.60
2023-01-03T01:31:46.905Z,7.60
2023-01-03T01:34:14.497Z,7.60
2023-01-03T01:36:42.893Z,7.60
2023-01-03T01:39:23.606Z,7.60
2023-01-03T01:42:19.010Z,7.60
2023-01-03T01:44:52.307Z,7.60
2023-01-03T01:47:27.658Z,7.70
2023-01-03T01:50:15.335Z,7.80
2023-01-03T01:52:57.400Z,7.80
2023-01-03T01:55:27.902Z,8.00
2023-01-03T01:57:55.051Z,8.10
2023-01-03T02:00:22.245Z,8.10
2023-01-03T02:02:52.462Z,8.20
2023-01-03T02:05:20.985Z,8.20
2023-01-03T02:07:50.356Z,8.30
2023-01-03T02:10:19.099Z,8.40
2023-01-03T02:13:07.845Z,8.40
2023-01-03T02:16:01.894Z,8.40
2023-01-03T02:18:37.252Z,8.50
2023-01-03T02:22:05.780Z,8.40
2023-01-03T02:25:05.728Z,8.50
2023-01-03T02:27:53.300Z,8.40
2023-01-03T02:30:22.995Z,8.30
2023-01-03T02:33:21.601Z,8.30
2023-01-03T02:35:53.903Z,8.20
2023-01-03T02:38:39.280Z,8.10
2023-01-03T02:41:24.293Z,8.00
2023-01-03T02:44:14.693Z,7.90
2023-01-03T02:46:50.287Z,7.80
2023-01-03T02:49:31.981Z,7.70
2023-01-03T02:52:05.216Z,7.70
2023-01-03T02:54:43.661Z,7.60
2023-01-03T02:57:17.716Z,7.60
2023-01-03T03:00:08.855Z,7.50
2023-01-03T03:02:37.379Z,7.50
2023-01-03T03:05:08.076Z,7.50
2023-01-03T03:07:39.126Z,7.40
2023-01-03T03:10:27.196Z,7.40
2023-01-03T03:13:14.133Z,7.40
2023-01-03T03:15:54.124Z,7.30
2023-01-03T03:18:59.677Z,7.30
2023-01-03T03:21:52.938Z,7.20
2023-01-03T03:24:47.685Z,7.20
2023-01-03T03:27:35.689Z,7.20
2023-01-03T03:30:05.505Z,7.20
2023-01-03T03:32:35.006Z,7.20
2023-01-03T03:35:04.493Z,7.20
2023-01-03T03:37:35.563Z,7.20
2023-01-03T03:40:21.539Z,7.20
2023-01-03T03:43:20.249Z,7.20
2023-01-03T03:46:03.325Z,7.20
2023-01-03T03:48:57.694Z,7.10
2023-01-03T03:51:29.195Z,7.10
2023-01-03T03:53:57.561Z,7.00
2023-01-03T03:56:31.689Z,7.00
2023-01-03T03:59:03.389Z,6.90
2023-01-03T04:01:31.388Z,6.90
2023-01-03T04:04:03.470Z,6.90
2023-01-03T04:06:35.178Z,6.80
2023-01-03T04:09:02.069Z,6.80
2023-01-03T04:11:28.860Z,6.80
2023-01-03T04:13:55.490Z,6.80
2023-01-03T04:16:22.187Z,6.80
2023-01-03T04:18:48.828Z,6.70
2023-01-03T04:21:20.733Z,6.70
2023-01-03T04:23:48.133Z,6.70
2023-01-03T04:26:14.821Z,6.70
2023-01-03T04:28:41.462Z,6.60
2023-01-03T04:31:08.326Z,6.60
2023-01-03T04:33:35.189Z,6.70
2023-01-03T04:36:01.837Z,6.70
2023-01-03T04:38:28.508Z,6.70
2023-01-03T04:40:55.162Z,6.70
2023-01-03T04:43:40.533Z,6.60
2023-01-03T04:46:07.245Z,6.60
2023-01-03T04:48:33.987Z,6.50
2023-01-03T04:51:00.753Z,6.40
2023-01-03T04:53:28.068Z,6.30
2023-01-03T04:55:56.838Z,6.20
2023-01-03T04:58:24.112Z,6.20
2023-01-03T05:00:51.139Z,6.10
2023-01-03T05:03:21.297Z,6.00
2023-01-03T05:05:52.478Z,6.00
2023-01-03T05:08:19.290Z,6.00
2023-01-03T05:10:45.923Z,6.00
2023-01-03T05:13:12.514Z,5.90
2023-01-03T05:15:39.725Z,5.90
2023-01-03T05:18:06.599Z,5.80
2023-01-03T05:20:55.222Z,5.80
2023-01-03T05:23:41.282Z,5.70
2023-01-03T05:26:14.670Z,5.60
2023-01-03T05:28:44.858Z,5.70
2023-01-03T05:31:11.867Z,5.70
2023-01-03T05:33:40.031Z,5.70
2023-01-03T05:36:07.701Z,5.60
2023-01-03T05:38:34.432Z,5.60
2023-01-03T05:41:01.071Z,5.60
2023-01-03T05:43:27.777Z,5.60
2023-01-03T05:45:54.532Z,5.50
2023-01-03T05:48:22.542Z,5.50
2023-01-03T05:50:52.894Z,5.50
2023-01-03T05:53:19.594Z,5.40
2023-01-03T05:55:46.239Z,5.40
2023-01-03T05:58:13.101Z,5.30
2023-01-03T06:00:39.902Z,5.30
2023-01-03T06:03:07.104Z,5.20
2023-01-03T06:05:33.864Z,5.20
2023-01-03T06:08:04.592Z,5.20
2023-01-03T06:10:31.231Z,5.10
2023-01-03T06:12:57.925Z,5.10
2023-01-03T06:15:24.579Z,5.00
2023-01-03T06:18:02.590Z,5.00
2023-01-03T06:20:30.147Z,4.90
2023-01-03T06:22:57.359Z,4.90
2023-01-03T06:25:24.614Z,4.90
2023-01-03T06:27:51.390Z,4.80
2023-01-03T06:30:18.481Z,4.80
2023-01-03T06:32:45.167Z,4.80
2023-01-03T06:35:12.229Z,4.80
2023-01-03T06:37:39.223Z,4.80
2023-01-03T06:40:06.734Z,4.80
2023-01-03T06:42:42.153Z,4.80
2023-01-03T06:45:28.968Z,4.80
2023-01-03T06:48:14.448Z,4.80
2023-01-03T06:51:01.393Z,4.70
2023-01-03T06:53:37.803Z,4.70
2023-01-03T06:56:04.905Z,4.60
2023-01-03T06:58:32.007Z,4.50
2023-01-03T07:01:02.594Z,4.50
2023-01-03T07:03:31.166Z,4.50
2023-01-03T07:05:57.837Z,4.50
2023-01-03T07:08:24.567Z,4.50
2023-01-03T07:10:51.224Z,4.50
2023-01-03T07:13:36.497Z,4.50
2023-01-03T07:16:03.232Z,4.50
2023-01-03T07:18:30.963Z,4.40
2023-01-03T07:20:57.595Z,4.40
2023-01-03T07:23:24.241Z,4.30
2023-01-03T07:25:55.605Z,4.30
2023-01-03T07:28:22.252Z,4.30
2023-01-03T07:30:48.971Z,4.30
2023-01-03T07:33:16.669Z,4.30
2023-01-03T07:35:43.516Z,4.30
2023-01-03T07:38:12.096Z,4.30
2023-01-03T07:40:39.597Z,4.20
2023-01-03T07:43:25.136Z,4.10
2023-01-03T07:45:51.819Z,4.10
2023-01-03T07:48:18.586Z,4.00
2023-01-03T07:50:45.265Z,4.00
2023-01-03T07:53:17.142Z,3.90
2023-01-03T07:55:47.488Z,3.90
2023-01-03T07:58:14.213Z,3.90
2023-01-03T08:00:41.999Z,3.80
2023-01-03T08:03:11.464Z,3.70
2023-01-03T08:05:38.564Z,3.70
2023-01-03T08:08:05.666Z,3.60
2023-01-03T08:10:51.031Z,3.60
2023-01-03T08:13:18.115Z,3.70
2023-01-03T08:15:45.366Z,3.70
2023-01-03T08:18:12.622Z,3.60
2023-01-03T08:20:39.361Z,3.60
2023-01-03T08:23:06.083Z,3.60
2023-01-03T08:25:32.765Z,3.60
2023-01-03T08:28:00.842Z,3.70
2023-01-03T08:30:31.584Z,3.80
2023-01-03T08:33:02.531Z,4.00
2023-01-03T08:35:33.346Z,4.10
2023-01-03T08:38:02.535Z,4.20
2023-01-03T08:40:30.524Z,4.40
2023-01-03T08:42:57.250Z,4.50
2023-01-03T08:45:23.916Z,4.60
2023-01-03T08:47:50.611Z,4.80
2023-01-03T08:50:17.368Z,5.00
2023-01-03T08:52:44.084Z,5.10
2023-01-03T08:55:10.774Z,5.30
2023-01-03T08:57:37.399Z,5.40
2023-01-03T09:00:05.694Z,5.60
2023-01-03T09:02:35.615Z,5.80
2023-01-03T09:05:02.613Z,6.00
2023-01-03T09:07:29.250Z,6.10
2023-01-03T09:09:55.906Z,6.20
2023-01-03T09:12:22.521Z,6.40
2023-01-03T09:14:49.197Z,6.60
2023-01-03T09:17:16.197Z,6.80
2023-01-03T09:19:42.875Z,7.00
2023-01-03T09:22:09.492Z,7.30
2023-01-03T09:24:36.178Z,7.70
2023-01-03T09:27:02.794Z,8.80
2023-01-03T09:29:29.493Z,10.70
2023-01-03T09:31:56.248Z,13.10
2023-01-03T09:34:22.943Z,15.10
2023-01-03T09:36:49.599Z,16.50
2023-01-03T09:39:16.243Z,18.30
2023-01-03T09:41:44.070Z,19.80
2023-01-03T09:44:10.904Z,21.00
2023-01-03T09:46:38.062Z,22.00
2023-01-03T09:49:07.013Z,23.10
2023-01-03T09:51:58.420Z,24.10
2023-01-03T09:54:50.655Z,25.10
2023-01-03T09:57:50.345Z,25.70
2023-01-03T10:00:38.997Z,25.40
2023-01-03T10:03:51.635Z,24.70
2023-01-03T10:06:50.631Z,24.00
2023-01-03T10:09:39.994Z,24.10
2023-01-03T10:12:45.587Z,24.40
2023-01-03T10:15:37.370Z,25.00
2023-01-03T10:18:10.205Z,25.70
2023-01-03T10:20:48.897Z,25.60
2023-01-03T10:23:15.925Z,26.10
2023-01-03T10:25:45.318Z,26.10
2023-01-03T10:28:21.384Z,26.50
2023-01-03T10:31:16.006Z,26.90
2023-01-03T10:33:45.568Z,26.50
2023-01-03T10:36:13.560Z,24.50
2023-01-03T10:38:49.452Z,22.30
2023-01-03T10:41:47.946Z,20.20
2023-01-03T10:44:32.467Z,18.00
2023-01-03T10:47:10.763Z,16.30
2023-01-03T10:49:37.408Z,15.30
2023-01-03T10:52:12.547Z,14.50
2023-01-03T10:54:52.665Z,13.90
2023-01-03T10:57:53.285Z,13.50
2023-01-03T11:00:36.310Z,13.10
2023-01-03T11:03:25.963Z,12.70
2023-01-03T11:06:01.456Z,12.60
2023-01-03T11:08:45.841Z,13.00
2023-01-03T11:11:31.825Z,13.00
2023-01-03T11:14:23.779Z,13.10
2023-01-03T11:17:01.260Z,13.10
2023-01-03T11:19:30.851Z,12.90
2023-01-03T11:22:11.372Z,12.40
2023-01-03T11:25:04.322Z,12.10
2023-01-03T11:27:58.988Z,11.90
2023-01-03T11:30:48.792Z,11.60
2023-01-03T11:34:00.282Z,11.40
2023-01-03T11:36:38.585Z,11.20
2023-01-03T11:39:26.787Z,11.00
2023-01-03T11:42:30.496Z,10.80
2023-01-03T11:45:21.500Z,10.70
2023-01-03T11:48:16.295Z,10.60
2023-01-03T11:51:01.798Z,10.50
2023-01-03T11:53:38.365Z,10.50
2023-01-03T11:56:13.700Z,10.40
2023-01-03T11:59:06.956Z,10.40
2023-01-03T12:02:11.262Z,10.40
2023-01-03T12:05:02.561Z,10.40
2023-01-03T12:07:49.471Z,10.30
2023-01-03T12:10:53.689Z,10.30
2023-01-03T12:13:32.449Z,10.20
2023-01-03T12:16:17.211Z,10.20
2023-01-03T12:18:58.938Z,10.20
2023-01-03T12:21:36.138Z,10.20
2023-01-03T12:24:35.003Z,10.20
2023-01-03T12:27:30.586Z,10.10
2023-01-03T12:30:00.288Z,10.10
2023-01-03T12:32:47.384Z,10.10
2023-01-03T12:35:25.319Z,10.10
2023-01-03T12:37:52.198Z,10.10
2023-01-03T12:40:32.863Z,10.20
2023-01-03T12:43:09.691Z,10.20
2023-01-03T12:45:44.500Z,10.20
2023-01-03T12:48:11.089Z,10.30
2023-01-03T12:50:44.528Z,10.30
2023-01-03T12:53:24.226Z,10.40
2023-01-03T12:56:28.401Z,10.30
2023-01-03T12:59:20.152Z,10.30
2023-01-03T13:01:54.241Z,10.30
2023-01-03T13:04:34.134Z,10.30
2023-01-03T13:07:06.085Z,10.40
2023-01-03T13:09:42.267Z,10.30
2023-01-03T13:12:21.293Z,10.40
2023-01-03T13:15:03.759Z,10.40
2023-01-03T13:17:32.210Z,10.40
2023-01-03T13:20:20.538Z,10.50
2023-01-03T13:22:54.276Z,10.70
2023-01-03T13:25:26.831Z,10.80
2023-01-03T13:28:05.703Z,10.80
2023-01-03T13:30:36.088Z,10.80
2023-01-03T13:33:11.897Z,10.70
2023-01-03T13:35:44.475Z,10.70
2023-01-03T13:38:28.564Z,10.70
2023-01-03T13:43:50.185Z,10.60
2023-01-03T13:46:25.695Z,10.40
2023-01-03T13:48:56.894Z,10.30
2023-01-03T13:51:38.828Z,10.30
2023-01-03T13:54:11.324Z,10.20
2023-01-03T13:56:44.008Z,10.20
2023-01-03T13:59:25.752Z,10.20
2023-01-03T14:02:10.628Z,10.10
2023-01-03T14:04:49.382Z,10.10
2023-01-03T14:07:53.895Z,10.10
2023-01-03T14:10:21.444Z,10.10
2023-01-03T14:13:02.976Z,10.10
2023-01-03T14:15:32.124Z,10.00
2023-01-03T14:18:22.205Z,10.00
2023-01-03T14:20:52.915Z,10.20
2023-01-03T14:26:16.051Z,10.20
2023-01-03T14:28:48.630Z,10.30
2023-01-03T14:31:25.401Z,10.30
2023-01-03T14:33:57.012Z,10.30
2023-01-03T14:36:23.748Z,10.40
2023-01-03T14:38:53.519Z,10.30
2023-01-03T14:41:32.852Z,10.30
2023-01-03T14:44:01.778Z,10.30
2023-01-03T14:46:30.322Z,10.20
2023-01-03T14:49:03.388Z,10.20
2023-01-03T14:51:33.198Z,10.20
2023-01-03T14:54:01.201Z,10.10
2023-01-03T14:56:28.709Z,10.00
2023-01-03T14:58:56.187Z,10.00
2023-01-03T15:01:24.008Z,10.00
2023-01-03T15:03:51.985Z,9.90
2023-01-03T15:06:25.331Z,9.90
2023-01-03T15:08:55.821Z,9.90
2023-01-03T15:11:30.328Z,9.90
2023-01-03T15:14:06.124Z,9.80
2023-01-03T15:16:36.752Z,9.80
2023-01-03T15:19:17.721Z,9.80
2023-01-03T15:21:44.478Z,9.80
2023-01-03T15:24:17.293Z,9.80
2023-01-03T15:26:46.971Z,9.80
2023-01-03T15:29:24.497Z,9.80
2023-01-03T15:31:54.291Z,9.80
2023-01-03T15:34:41.746Z,9.80
2023-01-03T15:37:21.878Z,9.80
2023-01-03T15:39:54.298Z,9.80
2023-01-03T15:42:45.956Z,9.70
2023-01-03T15:45:21.987Z,9.70
2023-01-03T15:47:50.168Z,9.60
2023-01-03T15:50:21.447Z,9.60
2023-01-03T15:52:49.108Z,9.60
2023-01-03T15:55:17.765Z,9.50
2023-01-03T15:57:52.166Z,9.50
2023-01-03T16:00:21.880Z,9.50
2023-01-03T16:02:49.298Z,9.50
2023-01-03T16:05:22.125Z,9.50
2023-01-03T16:07:50.217Z,9.40
2023-01-03T16:10:16.962Z,9.30
2023-01-03T16:12:44.107Z,9.30
2023-01-03T16:15:19.027Z,9.20
2023-01-03T16:17:46.015Z,9.20
2023-01-03T16:20:17.780Z,9.20
2023-01-03T16:22:57.358Z,9.10
2023-01-03T16:25:26.935Z,9.10
2023-01-03T16:27:53.575Z,9.00
2023-01-03T16:30:20.208Z,9.00
2023-01-03T16:32:46.931Z,9.00
2023-01-03T16:35:18.927Z,9.00
2023-01-03T16:37:45.655Z,9.00
2023-01-03T16:40:15.750Z,8.90
2023-01-03T16:42:42.394Z,8.90
2023-01-03T16:45:09.451Z,8.90
2023-01-03T16:47:36.497Z,8.80
2023-01-03T16:50:07.789Z,8.70
2023-01-03T16:52:39.086Z,8.80
2023-01-03T16:55:17.787Z,8.70
2023-01-03T16:57:47.464Z,8.70
2023-01-03T17:00:21.581Z,8.60
2023-01-03T17:02:48.805Z,8.60
2023-01-03T17:05:15.995Z,8.60
2023-01-03T17:07:45.254Z,8.60
2023-01-03T17:10:37.278Z,8.50
2023-01-03T17:13:12.177Z,8.60
2023-01-03T17:15:40.772Z,8.50
2023-01-03T17:18:17.601Z,8.40
2023-01-03T17:20:44.496Z,8.30
2023-01-03T17:23:11.387Z,8.30
2023-01-03T17:25:40.227Z,8.20
2023-01-03T17:28:10.247Z,8.10
2023-01-03T17:30:37.825Z,8.00
2023-01-03T17:33:04.839Z,8.00
2023-01-03T17:35:31.907Z,8.00
2023-01-03T17:38:24.671Z,7.90
2023-01-03T17:40:47.663Z,7.90
2023-01-03T17:43:20.357Z,7.80
2023-01-03T17:46:07.360Z,7.80
2023-01-03T17:48:57.321Z,7.70
2023-01-03T17:51:24.941Z,7.60
2023-01-03T17:53:52.398Z,7.50
2023-01-03T17:56:20.649Z,7.50
2023-01-03T17:58:55.625Z,7.50
2023-01-03T18:01:23.135Z,7.40
2023-01-03T18:03:50.099Z,7.40
2023-01-03T18:06:22.116Z,7.40
2023-01-03T18:08:50.277Z,7.40
2023-01-03T18:11:22.000Z,7.40
2023-01-03T18:13:49.489Z,7.30
2023-01-03T18:16:19.510Z,7.30
2023-01-03T18:18:46.564Z,7.30
2023-01-03T18:21:22.335Z,7.30
2023-01-03T18:24:18.774Z,7.20
2023-01-03T18:26:48.910Z,7.30
2023-01-03T18:29:16.785Z,7.20
2023-01-03T18:31:44.512Z,7.20
2023-01-03T18:34:12.142Z,7.20
2023-01-03T18:36:50.741Z,7.10
2023-01-03T18:39:30.452Z,7.10
2023-01-03T18:42:16.737Z,7.10
2023-01-03T18:44:43.408Z,7.10
2023-01-03T18:47:12.802Z,7.00
2023-01-03T18:49:39.443Z,6.90
2023-01-03T18:52:06.298Z,6.90
2023-01-03T18:54:38.243Z,6.80
2023-01-03T18:57:04.854Z,6.70
2023-01-03T18:59:32.149Z,6.70
2023-01-03T19:01:59.073Z,6.70
2023-01-03T19:04:25.828Z,6.60
2023-01-03T19:06:52.528Z,6.50
2023-01-03T19:09:26.578Z,6.50
2023-01-03T19:11:54.262Z,6.50
2023-01-03T19:14:21.015Z,6.40
2023-01-03T19:16:48.096Z,6.40
2023-01-03T19:19:14.814Z,6.40
2023-01-03T19:21:44.931Z,6.40
2023-01-03T19:24:39.001Z,6.40
2023-01-03T19:27:16.407Z,6.40
2023-01-03T19:29:43.760Z,6.40
2023-01-03T19:32:20.013Z,6.40
2023-01-03T19:34:46.680Z,6.40
2023-01-03T19:37:13.438Z,6.40
2023-01-03T19:39:40.179Z,6.40
2023-01-03T19:42:34.235Z,6.40
2023-01-03T19:45:02.466Z,6.40
2023-01-03T19:47:29.090Z,6.50
2023-01-03T19:49:57.231Z,6.50
2023-01-03T19:52:24.729Z,6.50
2023-01-03T19:54:51.399Z,6.50
2023-01-03T19:57:22.548Z,6.50
2023-01-03T19:59:53.621Z,6.50
2023-01-03T20:02:32.755Z,6.60
2023-01-03T20:04:59.997Z,6.60
2023-01-03T20:07:26.875Z,6.60
2023-01-03T20:09:53.530Z,6.60
2023-01-03T20:12:25.735Z,6.50
2023-01-03T20:14:54.784Z,6.50
2023-01-03T20:17:23.567Z,6.50
2023-01-03T20:19:50.356Z,6.40
2023-01-03T20:22:37.703Z,6.40
2023-01-03T20:25:24.344Z,6.40
2023-01-03T20:27:51.721Z,6.40
2023-01-03T20:30:20.545Z,6.40
2023-01-03T20:32:47.323Z,6.40
2023-01-03T20:38:03.205Z,6.40
2023-01-03T20:40:29.968Z,6.30
2023-01-03T20:42:58.185Z,6.30
2023-01-03T20:45:24.934Z,6.30
2023-01-03T20:47:54.115Z,6.30
2023-01-03T20:50:28.716Z,6.30
2023-01-03T20:52:58.009Z,6.30
2023-01-03T20:55:26.620Z,6.30
2023-01-03T20:57:53.499Z,6.40
2023-01-03T21:00:30.572Z,6.40
2023-01-03T21:02:57.823Z,6.40
2023-01-03T21:05:24.703Z,6.30
2023-01-03T21:08:10.130Z,6.30
2023-01-03T21:10:42.176Z,6.30
2023-01-03T21:13:10.339Z,6.30
2023-01-03T21:15:37.995Z,6.20
2023-01-03T21:18:05.429Z,6.30
2023-01-03T21:20:32.677Z,6.30
2023-01-03T21:22:59.358Z,6.40
2023-01-03T21:25:30.156Z,6.40
2023-01-03T21:27:56.795Z,6.40
2023-01-03T21:30:24.401Z,6.40
2023-01-03T21:32:51.553Z,6.50
2023-01-03T21:35:23.343Z,6.50
2023-01-03T21:37:51.203Z,6.40
2023-01-03T21:40:23.517Z,6.40
2023-01-03T21:43:04.300Z,6.30
2023-01-03T21:45:35.998Z,6.20
2023-01-03T21:48:05.805Z,6.20
2023-01-03T21:50:33.484Z,6.10
2023-01-03T21:53:00.166Z,6.10
2023-01-03T21:55:27.017Z,6.10
2023-01-03T21:57:53.647Z,6.10
2023-01-03T22:00:20.405Z,6.00
2023-01-03T22:03:05.798Z,6.00
2023-01-03T22:05:32.627Z,5.90
2023-01-03T22:08:01.203Z,5.90
2023-01-03T22:10:30.253Z,5.90
2023-01-03T22:13:06.020Z,5.90
2023-01-03T22:15:36.753Z,5.90
2023-01-03T22:18:05.791Z,6.00
2023-01-03T22:20:38.176Z,6.00
2023-01-03T22:23:06.570Z,6.00
2023-01-03T22:25:33.340Z,6.00
2023-01-03T22:28:00.282Z,6.00
2023-01-03T22:30:27.021Z,6.00
2023-01-03T22:32:56.186Z,6.00
2023-01-03T22:35:22.832Z,6.00
2023-01-03T22:37:49.593Z,6.00
2023-01-03T22:40:17.640Z,6.00
2023-01-03T22:42:44.684Z,6.00
2023-01-03T22:45:11.472Z,5.90
2023-01-03T22:47:38.660Z,5.90
2023-01-03T22:50:07.139Z,5.80
2023-01-03T22:52:34.987Z,5.80
2023-01-03T22:55:01.665Z,5.80
2023-01-03T22:57:28.426Z,5.70
2023-01-03T22:59:55.049Z,5.70
2023-01-03T23:02:27.995Z,5.60
2023-01-03T23:04:55.644Z,5.60
2023-01-03T23:07:22.290Z,5.50
2023-01-03T23:09:48.934Z,5.50
2023-01-03T23:12:33.972Z,4.00
2023-01-03T23:15:00.604Z,5.50
2023-01-03T23:17:47.534Z,5.50
2023-01-03T23:20:14.166Z,5.50
2023-01-03T23:22:40.833Z,5.50
2023-01-03T23:25:07.839Z,5.50
2023-01-03T23:27:34.669Z,5.50
2023-01-03T23:30:01.306Z,5.40
2023-01-03T23:32:27.963Z,5.40
2023-01-03T23:34:54.578Z,5.40
2023-01-03T23:37:21.254Z,5.50
2023-01-03T23:39:48.054Z,5.50
2023-01-03T23:42:14.744Z,5.40
2023-01-03T23:44:41.453Z,5.40
2023-01-03T23:47:12.490Z,5.40
2023-01-03T23:49:39.816Z,5.40
2023-01-03T23:52:06.632Z,5.30
2023-01-03T23:54:34.358Z,5.30
2023-01-03T23:57:01.016Z,5.20
2023-01-03T23:59:27.651Z,5.20
